CheckWX is a tool to help pilots better visualize weather data.  It is not intended as a substitute for an official pre-flight weather briefing.

12:09:23 UTC

LGSA TAF
Chania International Airport
Souda, Greece
TAF LGSA 061700Z 0618/0718 29010KT 9999 SCT025 PROB40 TEMPO 0702/0716 5000 RA FEW018TCU BKN020 BKN080 PROB30 TEMPO 0706/0715 5000 TSRA FEW016CB BKN020 BKN080

Jul-6@
18:00 UTC

Jul-6 @ 18:00 UTC

Jul-7@
18:00 UTC

Jul-7 @ 18:00 UTC

TAF LGSA 061700Z 0618/0718 29010KT 9999 SCT025
Wind
  • 290° at 10 KTS
Cloud Levels
  • Scattered at 2,500' AGL

Jul-7@
02:00 UTC

Jul-7 @ 02:00 UTC

Jul-7@
16:00 UTC

Jul-7 @ 16:00 UTC

PROB40 TEMPO 0702/0716 5000 RA FEW018TCU BKN020 BKN080

Temporary - 40% Likelihood

Temporary - 40% Likelihood during this time.

Conditions
Rain
Cloud Levels
  • Few at 1,800' AGL
  • Broken at 2,000' AGL
  • Broken at 8,000' AGL

Jul-7@
06:00 UTC

Jul-7 @ 06:00 UTC

Jul-7@
15:00 UTC

Jul-7 @ 15:00 UTC

PROB30 TEMPO 0706/0715 5000 TSRA FEW016CB BKN020 BKN080

Temporary - 30% Likelihood

Temporary - 30% Likelihood during this time.

Conditions
Thunderstorm, Rain
Cloud Levels
  • Few at 1,600' AGL
  • Broken at 2,000' AGL
  • Broken at 8,000' AGL